Jewell Ridge, Virginia
Current Conditions -  °F | °C
As of 5:35 AM on Sunday 21 Dec 2014 (Local Time) from KJFZ Reporting Station
Haze Haze  
Wind Chill: 32°   Ceiling: 1100
Heat Index: 32°   Visibility: 5mi
Dew Point: 31°   Wind: 0mph
Humidity: 95%   Direction: NA
Pressure: 30.19"   Gusts: NA
Location:  37.19°N, 81.79°W
Report Text: KJFZ 211035Z AUTO 00000KT 5SM BR OVC011 00/M01 A3019 RMK AO2 T00011006
Loading
Personal Weather Stations






























Interactive Weather Map New forecast layout! Learn more

10-Day Weather Forecast

Advertisements
Track Severe Weather on mobile